createdAt,value
2019-02-23T00:00:38.462Z,11.70
2019-02-23T00:03:07.129Z,11.80
2019-02-23T00:05:35.817Z,11.60
2019-02-23T00:08:04.531Z,11.40
2019-02-23T00:10:33.223Z,11.60
2019-02-23T00:13:02.000Z,11.60
2019-02-23T00:15:30.713Z,11.70
2019-02-23T00:17:59.432Z,11.50
2019-02-23T00:20:28.108Z,11.60
2019-02-23T00:22:56.911Z,11.40
2019-02-23T00:25:27.060Z,11.40
2019-02-23T00:27:55.772Z,11.70
2019-02-23T00:30:24.519Z,11.50
2019-02-23T00:32:53.223Z,11.80
2019-02-23T00:35:21.916Z,12.00
2019-02-23T00:37:50.740Z,11.80
2019-02-23T00:40:19.403Z,11.60
2019-02-23T00:42:48.094Z,11.70
2019-02-23T00:45:16.796Z,11.70
2019-02-23T00:47:45.521Z,11.80
2019-02-23T00:50:14.248Z,11.70
2019-02-23T00:52:42.941Z,11.60
2019-02-23T00:55:11.683Z,11.40
2019-02-23T00:57:40.369Z,11.00
2019-02-23T01:00:11.461Z,10.70
2019-02-23T01:02:40.395Z,10.90
2019-02-23T01:05:09.066Z,10.50
2019-02-23T01:07:38.552Z,10.30
2019-02-23T01:10:09.933Z,10.20
2019-02-23T01:12:38.649Z,10.00
2019-02-23T01:15:09.558Z,10.20
2019-02-23T01:17:38.236Z,10.60
2019-02-23T01:20:09.352Z,10.70
2019-02-23T01:22:38.171Z,10.60
2019-02-23T01:25:07.084Z,10.50
2019-02-23T01:27:35.921Z,10.30
2019-02-23T01:30:06.626Z,10.20
2019-02-23T01:32:35.551Z,10.10
2019-02-23T01:35:05.319Z,10.20
2019-02-23T01:37:34.018Z,10.00
2019-02-23T01:40:02.718Z,10.00
2019-02-23T01:42:31.491Z,9.90
2019-02-23T01:45:00.329Z,10.00
2019-02-23T01:47:29.273Z,10.00
2019-02-23T01:49:59.242Z,9.70
2019-02-23T01:52:28.398Z,10.00
2019-02-23T01:54:57.076Z,10.00
2019-02-23T01:57:25.744Z,9.70
2019-02-23T01:59:54.446Z,9.80
2019-02-23T02:02:23.131Z,9.80
2019-02-23T02:04:51.837Z,9.90
2019-02-23T02:07:20.541Z,9.60
2019-02-23T02:09:49.206Z,9.70
2019-02-23T02:12:18.122Z,10.00
2019-02-23T02:14:46.827Z,10.00
2019-02-23T02:17:15.538Z,9.90
2019-02-23T02:19:44.219Z,9.90
2019-02-23T02:22:12.947Z,10.10
2019-02-23T02:24:41.630Z,10.10
2019-02-23T02:27:10.326Z,10.10
2019-02-23T02:29:39.046Z,10.10
2019-02-23T02:32:07.710Z,10.20
2019-02-23T02:34:36.391Z,9.90
2019-02-23T02:37:05.087Z,10.00
2019-02-23T02:39:33.754Z,10.20
2019-02-23T02:42:02.459Z,10.20
2019-02-23T02:44:31.182Z,10.00
2019-02-23T02:46:59.982Z,10.10
2019-02-23T02:49:28.760Z,10.20
2019-02-23T02:51:57.440Z,10.10
2019-02-23T02:54:26.155Z,10.20
2019-02-23T02:56:54.853Z,10.00
2019-02-23T02:59:23.518Z,10.30
2019-02-23T03:01:52.230Z,10.10
2019-02-23T03:04:20.931Z,10.10
2019-02-23T03:06:49.614Z,10.30
2019-02-23T03:09:18.625Z,10.10
2019-02-23T03:11:47.319Z,10.10
2019-02-23T03:14:16.073Z,10.10
2019-02-23T03:16:44.812Z,10.20
2019-02-23T03:19:13.524Z,9.80
2019-02-23T03:21:42.188Z,10.20
2019-02-23T03:24:10.902Z,10.10
2019-02-23T03:26:39.747Z,10.40
2019-02-23T03:29:08.441Z,10.00
2019-02-23T03:31:37.145Z,10.00
2019-02-23T03:34:06.062Z,10.20
2019-02-23T03:36:34.732Z,9.90
2019-02-23T03:39:04.245Z,10.10
2019-02-23T03:41:32.949Z,10.10
2019-02-23T03:44:01.620Z,10.10
2019-02-23T03:46:30.353Z,9.80
2019-02-23T03:48:59.275Z,9.70
2019-02-23T03:51:27.986Z,9.70
2019-02-23T03:53:56.692Z,9.80
2019-02-23T03:56:25.330Z,9.40
2019-02-23T03:58:54.024Z,9.60
2019-02-23T04:01:22.744Z,9.70
2019-02-23T04:03:51.448Z,9.60
2019-02-23T04:06:20.112Z,9.80
2019-02-23T04:08:48.819Z,9.80
2019-02-23T04:11:17.592Z,9.70
2019-02-23T04:13:46.259Z,9.80
2019-02-23T04:16:14.961Z,9.80
2019-02-23T04:18:44.126Z,10.00
2019-02-23T04:21:12.826Z,9.70
2019-02-23T04:23:41.499Z,9.60
2019-02-23T04:26:10.198Z,9.80
2019-02-23T04:28:38.865Z,9.70
2019-02-23T04:31:07.555Z,9.70
2019-02-23T04:33:36.259Z,9.90
2019-02-23T04:36:04.917Z,10.00
2019-02-23T04:38:33.695Z,9.70
2019-02-23T04:41:02.367Z,9.90
2019-02-23T04:43:31.046Z,9.80
2019-02-23T04:45:59.743Z,9.60
2019-02-23T04:48:28.458Z,9.80
2019-02-23T04:50:57.135Z,10.00
2019-02-23T04:53:25.861Z,9.70
2019-02-23T04:55:54.546Z,9.60
2019-02-23T04:58:23.249Z,9.60
2019-02-23T05:00:51.903Z,9.80
2019-02-23T05:03:20.628Z,9.30
2019-02-23T05:05:49.379Z,9.70
2019-02-23T05:08:18.126Z,9.30
2019-02-23T05:10:46.862Z,9.30
2019-02-23T05:13:15.596Z,9.40
2019-02-23T05:15:44.277Z,9.20
2019-02-23T05:18:12.941Z,9.30
2019-02-23T05:20:41.656Z,9.10
2019-02-23T05:23:10.314Z,9.20
2019-02-23T05:25:38.985Z,9.20
2019-02-23T05:28:07.698Z,8.90
2019-02-23T05:30:36.464Z,9.20
2019-02-23T05:33:05.130Z,8.80
2019-02-23T05:35:34.034Z,8.80
2019-02-23T05:38:02.704Z,8.80
2019-02-23T05:40:31.405Z,8.70
2019-02-23T05:43:01.363Z,8.70
2019-02-23T05:45:30.315Z,8.60
2019-02-23T05:47:58.991Z,8.50
2019-02-23T05:50:27.691Z,8.50
2019-02-23T05:52:56.370Z,8.50
2019-02-23T05:55:25.057Z,8.60
2019-02-23T05:57:53.759Z,8.60
2019-02-23T06:00:22.438Z,8.50
2019-02-23T06:02:51.164Z,8.50
2019-02-23T06:05:19.887Z,8.30
2019-02-23T06:07:48.607Z,8.70
2019-02-23T06:10:17.278Z,8.30
2019-02-23T06:12:46.008Z,8.40
2019-02-23T06:15:14.797Z,8.60
2019-02-23T06:17:43.693Z,8.50
2019-02-23T06:20:12.363Z,8.50
2019-02-23T06:22:41.077Z,8.60
2019-02-23T06:25:10.069Z,8.70
2019-02-23T06:27:39.020Z,8.80
2019-02-23T06:30:10.990Z,8.60
2019-02-23T06:32:39.718Z,8.70
2019-02-23T06:35:10.040Z,8.80
2019-02-23T06:37:38.788Z,8.60
2019-02-23T06:40:09.374Z,8.70
2019-02-23T06:42:38.075Z,8.80
2019-02-23T06:45:11.510Z,8.60
2019-02-23T06:47:40.196Z,8.70
2019-02-23T06:50:09.021Z,8.70
2019-02-23T06:52:37.712Z,8.80
2019-02-23T06:55:07.483Z,8.90
2019-02-23T06:57:36.336Z,8.90
2019-02-23T07:00:10.792Z,9.00
2019-02-23T07:02:39.507Z,9.00
2019-02-23T07:05:08.320Z,8.60
2019-02-23T07:07:37.027Z,8.80
2019-02-23T07:10:08.817Z,8.50
2019-02-23T07:12:37.526Z,8.70
2019-02-23T07:15:08.082Z,8.50
2019-02-23T07:17:36.957Z,8.40
2019-02-23T07:20:09.914Z,8.70
2019-02-23T07:22:40.326Z,8.70
2019-02-23T07:25:10.034Z,8.50
2019-02-23T07:27:38.820Z,8.70
2019-02-23T07:30:14.803Z,8.50
2019-02-23T07:32:43.505Z,8.50
2019-02-23T07:35:12.187Z,8.50
2019-02-23T07:37:40.977Z,8.60
2019-02-23T07:40:16.833Z,8.60
2019-02-23T07:42:45.553Z,8.60
2019-02-23T07:45:14.223Z,8.60
2019-02-23T07:47:42.937Z,8.80
2019-02-23T07:50:14.006Z,8.60
2019-02-23T07:52:42.694Z,8.60
2019-02-23T07:55:11.449Z,8.40
2019-02-23T07:57:40.129Z,8.50
2019-02-23T08:00:11.742Z,8.50
2019-02-23T08:02:40.431Z,8.40
2019-02-23T08:05:10.231Z,8.50
2019-02-23T08:07:39.978Z,8.50
2019-02-23T08:10:11.121Z,8.80
2019-02-23T08:12:39.868Z,8.50
2019-02-23T08:15:10.759Z,8.90
2019-02-23T08:17:39.528Z,8.60
2019-02-23T08:20:10.907Z,9.00
2019-02-23T08:22:39.639Z,9.00
2019-02-23T08:25:10.575Z,9.20
2019-02-23T08:27:39.284Z,9.20
2019-02-23T08:30:16.015Z,9.30
2019-02-23T08:32:44.721Z,9.10
2019-02-23T08:35:13.391Z,9.20
2019-02-23T08:37:42.108Z,9.10
2019-02-23T08:40:13.386Z,9.10
2019-02-23T08:42:42.177Z,9.50
2019-02-23T08:45:10.907Z,9.40
2019-02-23T08:47:40.750Z,9.60
2019-02-23T08:50:12.413Z,9.40
2019-02-23T08:52:48.454Z,9.50
2019-02-23T08:55:11.525Z,9.60
2019-02-23T08:57:40.303Z,9.80
2019-02-23T09:00:16.960Z,9.70
2019-02-23T09:02:45.950Z,9.70
2019-02-23T09:05:15.103Z,9.80
2019-02-23T09:07:43.806Z,9.90
2019-02-23T09:10:15.973Z,10.00
2019-02-23T09:12:44.656Z,9.80
2019-02-23T09:15:13.614Z,9.90
2019-02-23T09:17:42.424Z,10.00
2019-02-23T09:20:12.404Z,10.30
2019-02-23T09:22:41.996Z,10.00
2019-02-23T09:25:11.213Z,9.90
2019-02-23T09:27:39.971Z,9.80
2019-02-23T09:30:13.183Z,9.70
2019-02-23T09:32:41.947Z,9.90
2019-02-23T09:35:10.631Z,10.20
2019-02-23T09:37:39.348Z,10.20
2019-02-23T09:40:11.556Z,10.40
2019-02-23T09:42:40.531Z,10.20
2019-02-23T09:45:11.510Z,10.60
2019-02-23T09:47:40.213Z,10.50
2019-02-23T09:50:08.889Z,10.20
2019-02-23T09:52:37.586Z,10.30
2019-02-23T09:55:07.070Z,10.30
2019-02-23T09:57:35.989Z,10.60
2019-02-23T10:00:07.428Z,10.50
2019-02-23T10:02:36.124Z,10.60
2019-02-23T10:05:05.698Z,10.60
2019-02-23T10:07:34.375Z,10.50
2019-02-23T10:10:03.069Z,10.60
2019-02-23T10:12:31.779Z,10.90
2019-02-23T10:15:00.456Z,11.10
2019-02-23T10:17:29.142Z,10.90
2019-02-23T10:19:57.804Z,10.90
2019-02-23T10:22:26.669Z,11.30
2019-02-23T10:24:55.446Z,11.20
2019-02-23T10:27:24.348Z,11.30
2019-02-23T10:29:53.033Z,11.50
2019-02-23T10:32:21.745Z,11.70
2019-02-23T10:34:50.419Z,11.30
2019-02-23T10:37:19.121Z,11.50
2019-02-23T10:39:47.954Z,11.50
2019-02-23T10:42:16.669Z,11.50
2019-02-23T10:44:45.337Z,11.60
2019-02-23T10:47:14.043Z,11.70
2019-02-23T10:49:42.723Z,11.80
2019-02-23T10:52:11.423Z,12.00
2019-02-23T10:54:40.099Z,11.90
2019-02-23T10:57:08.816Z,11.90
2019-02-23T10:59:37.502Z,11.80
2019-02-23T11:02:06.190Z,12.00
2019-02-23T11:04:34.971Z,12.20
2019-02-23T11:07:03.767Z,12.30
2019-02-23T11:09:33.522Z,12.20
2019-02-23T11:12:02.281Z,12.40
2019-02-23T11:14:30.965Z,12.40
2019-02-23T11:16:59.699Z,12.30
2019-02-23T11:19:28.357Z,12.40
2019-02-23T11:21:57.852Z,12.40
2019-02-23T11:24:26.563Z,12.60
2019-02-23T11:26:55.270Z,12.50
2019-02-23T11:29:24.147Z,12.70
2019-02-23T11:31:52.878Z,12.50
2019-02-23T11:34:21.556Z,12.60
2019-02-23T11:36:50.269Z,12.70
2019-02-23T11:39:19.009Z,12.80
2019-02-23T11:41:47.686Z,12.80
2019-02-23T11:44:16.608Z,12.70
2019-02-23T11:46:59.922Z,12.90
2019-02-23T11:49:15.755Z,13.20
2019-02-23T11:51:44.438Z,13.10
2019-02-23T11:54:13.147Z,13.60
2019-02-23T11:56:41.826Z,13.40
2019-02-23T11:59:10.551Z,13.20
2019-02-23T12:01:39.275Z,13.30
2019-02-23T12:04:08.224Z,13.50
2019-02-23T12:06:36.894Z,13.70
2019-02-23T12:09:06.863Z,13.60
2019-02-23T12:11:35.569Z,13.70
2019-02-23T12:14:04.252Z,13.70
2019-02-23T12:16:32.927Z,13.50
2019-02-23T12:19:01.630Z,13.80
2019-02-23T12:21:30.358Z,13.80
2019-02-23T12:24:05.996Z,13.90
2019-02-23T12:26:29.668Z,14.10
2019-02-23T12:28:59.827Z,14.10
2019-02-23T12:31:28.551Z,14.30
2019-02-23T12:33:57.274Z,14.20
2019-02-23T12:36:28.184Z,14.30
2019-02-23T12:38:59.348Z,14.60
2019-02-23T12:41:28.125Z,14.60
2019-02-23T12:43:56.864Z,14.30
2019-02-23T12:46:25.584Z,14.40
2019-02-23T12:48:54.295Z,14.60
2019-02-23T12:51:23.007Z,14.60
2019-02-23T12:53:51.718Z,14.90
2019-02-23T12:56:20.393Z,14.70
2019-02-23T12:58:49.123Z,14.60
2019-02-23T13:01:17.801Z,14.90
2019-02-23T13:03:46.478Z,14.90
2019-02-23T13:06:15.191Z,14.70
2019-02-23T13:09:15.793Z,14.60
2019-02-23T13:11:47.677Z,14.70
2019-02-23T13:14:42.267Z,14.30
2019-02-23T13:17:29.192Z,14.40
2019-02-23T13:20:22.272Z,14.60
2019-02-23T13:22:56.971Z,14.60
2019-02-23T13:25:28.742Z,14.40
2019-02-23T13:28:09.388Z,14.60
2019-02-23T13:30:59.399Z,14.90
2019-02-23T13:33:53.962Z,14.60
2019-02-23T13:36:40.219Z,14.60
2019-02-23T13:39:11.866Z,14.80
2019-02-23T13:41:49.602Z,14.90
2019-02-23T13:44:38.871Z,14.70
2019-02-23T13:47:19.010Z,14.90
2019-02-23T13:49:59.620Z,14.70
2019-02-23T13:52:31.215Z,14.80
2019-02-23T13:55:18.090Z,14.70
2019-02-23T13:57:49.723Z,15.00
2019-02-23T14:00:36.584Z,15.10
2019-02-23T14:03:29.409Z,15.20
2019-02-23T14:06:32.629Z,15.00
2019-02-23T14:09:26.683Z,15.20
2019-02-23T14:12:16.373Z,15.10
2019-02-23T14:14:59.999Z,15.10
2019-02-23T14:17:46.618Z,14.90
2019-02-23T14:20:24.138Z,15.00
2019-02-23T14:23:24.632Z,15.20
2019-02-23T14:26:16.228Z,15.20
2019-02-23T14:28:50.921Z,15.10
2019-02-23T14:31:34.088Z,15.00
2019-02-23T14:34:05.700Z,15.20
2019-02-23T14:36:57.117Z,15.40
2019-02-23T14:39:41.150Z,15.30
2019-02-23T14:42:39.783Z,15.50
2019-02-23T14:45:27.923Z,15.20
2019-02-23T14:48:02.498Z,15.40
2019-02-23T14:51:01.688Z,15.30
2019-02-23T14:53:56.353Z,15.60
2019-02-23T14:56:47.687Z,15.50
2019-02-23T14:59:39.070Z,15.50
2019-02-23T15:02:27.051Z,15.10
2019-02-23T15:05:27.825Z,15.10
2019-02-23T15:08:11.500Z,15.20
2019-02-23T15:10:49.131Z,15.30
2019-02-23T15:13:26.874Z,15.10
2019-02-23T15:16:17.434Z,15.30
2019-02-23T15:19:01.019Z,15.10
2019-02-23T15:21:56.976Z,14.80
2019-02-23T15:24:40.252Z,14.90
2019-02-23T15:27:14.779Z,15.00
2019-02-23T15:30:01.586Z,15.10
2019-02-23T15:32:42.167Z,14.70
2019-02-23T15:35:37.878Z,14.70
2019-02-23T15:38:26.457Z,14.90
2019-02-23T15:40:58.086Z,14.90
2019-02-23T15:43:32.748Z,14.60
2019-02-23T15:46:10.427Z,14.50
2019-02-23T15:49:02.802Z,14.70
2019-02-23T15:51:31.610Z,14.70
2019-02-23T15:54:00.362Z,14.70
2019-02-23T15:56:29.079Z,14.50
2019-02-23T15:58:57.774Z,14.60
2019-02-23T16:01:26.529Z,14.80
2019-02-23T16:03:55.245Z,14.90
2019-02-23T16:06:23.979Z,14.60
2019-02-23T16:08:52.662Z,14.60
2019-02-23T16:11:21.370Z,14.60
2019-02-23T16:13:50.063Z,14.60
2019-02-23T16:16:18.782Z,14.50
2019-02-23T16:18:47.714Z,14.50
2019-02-23T16:21:16.421Z,14.60
2019-02-23T16:23:45.127Z,14.20
2019-02-23T16:26:13.798Z,14.20
2019-02-23T16:28:42.542Z,14.20
2019-02-23T16:31:11.357Z,14.30
2019-02-23T16:33:40.151Z,14.40
2019-02-23T16:36:08.841Z,14.00
2019-02-23T16:38:37.559Z,14.30
2019-02-23T16:41:06.290Z,14.30
2019-02-23T16:43:34.959Z,14.30
2019-02-23T16:46:03.677Z,14.40
2019-02-23T16:48:33.936Z,14.40
2019-02-23T16:51:02.709Z,14.30
2019-02-23T16:53:31.374Z,14.40
2019-02-23T16:56:01.166Z,14.70
2019-02-23T16:58:30.775Z,14.60
2019-02-23T17:00:59.491Z,14.60
2019-02-23T17:03:28.257Z,14.60
2019-02-23T17:05:56.926Z,14.60
2019-02-23T17:08:25.638Z,14.40
2019-02-23T17:10:54.351Z,14.60
2019-02-23T17:13:23.035Z,14.50
2019-02-23T17:15:51.713Z,14.40
2019-02-23T17:18:20.559Z,14.50
2019-02-23T17:20:49.287Z,14.10
2019-02-23T17:23:18.046Z,14.40
2019-02-23T17:25:46.770Z,14.40
2019-02-23T17:28:16.452Z,14.40
2019-02-23T17:30:45.132Z,14.30
2019-02-23T17:33:14.042Z,14.30
2019-02-23T17:35:42.797Z,14.20
2019-02-23T17:38:16.273Z,14.50
2019-02-23T17:40:41.968Z,14.10
2019-02-23T17:43:10.657Z,14.20
2019-02-23T17:45:39.388Z,13.90
2019-02-23T17:48:08.091Z,14.00
2019-02-23T17:50:36.821Z,14.20
2019-02-23T17:53:05.564Z,14.00
2019-02-23T17:55:34.300Z,13.90
2019-02-23T17:58:03.015Z,13.60
2019-02-23T18:00:31.806Z,13.80
2019-02-23T18:03:00.575Z,13.50
2019-02-23T18:05:29.793Z,13.60
2019-02-23T18:07:58.581Z,13.60
2019-02-23T18:10:27.571Z,13.50
2019-02-23T18:12:56.373Z,13.70
2019-02-23T18:15:25.118Z,13.30
2019-02-23T18:17:55.368Z,13.40
2019-02-23T18:20:25.656Z,13.10
2019-02-23T18:22:54.424Z,13.40
2019-02-23T18:25:23.178Z,13.10
2019-02-23T18:27:52.199Z,13.10
2019-02-23T18:30:20.972Z,13.20
2019-02-23T18:32:49.762Z,13.20
2019-02-23T18:35:18.503Z,13.40
2019-02-23T18:37:47.424Z,13.20
2019-02-23T18:40:17.188Z,13.30
2019-02-23T18:42:45.882Z,13.20
2019-02-23T18:45:14.690Z,13.30
2019-02-23T18:47:43.697Z,13.20
2019-02-23T18:50:12.420Z,13.10
2019-02-23T18:52:41.182Z,13.30
2019-02-23T18:55:10.006Z,13.40
2019-02-23T18:57:38.882Z,13.20
2019-02-23T19:00:10.956Z,13.30
2019-02-23T19:02:39.742Z,13.30
2019-02-23T19:05:10.999Z,13.40
2019-02-23T19:07:39.783Z,13.10
2019-02-23T19:10:13.929Z,13.10
2019-02-23T19:12:42.750Z,13.20
2019-02-23T19:15:13.375Z,13.20
2019-02-23T19:17:42.168Z,13.40
2019-02-23T19:20:15.084Z,13.30
2019-02-23T19:22:43.827Z,13.00
2019-02-23T19:25:12.579Z,12.90
2019-02-23T19:27:41.278Z,13.00
2019-02-23T19:30:15.986Z,13.00
2019-02-23T19:32:44.738Z,12.90
2019-02-23T19:35:13.594Z,12.90
2019-02-23T19:37:42.373Z,12.70
2019-02-23T19:40:11.215Z,12.90
2019-02-23T19:42:39.981Z,12.90
2019-02-23T19:45:12.741Z,12.60
2019-02-23T19:47:44.490Z,12.60
2019-02-23T19:50:16.404Z,12.60
2019-02-23T19:52:45.120Z,12.50
2019-02-23T19:55:16.310Z,12.60
2019-02-23T19:57:45.057Z,12.30
2019-02-23T20:00:13.800Z,12.40
2019-02-23T20:02:42.741Z,12.40
2019-02-23T20:05:11.775Z,12.60
2019-02-23T20:07:40.542Z,12.40
2019-02-23T20:10:11.084Z,12.40
2019-02-23T20:12:39.768Z,12.60
2019-02-23T20:15:10.377Z,12.30
2019-02-23T20:17:39.169Z,12.30
2019-02-23T20:20:08.960Z,12.20
2019-02-23T20:22:37.672Z,12.00
2019-02-23T20:25:08.761Z,12.30
2019-02-23T20:27:37.469Z,12.30
2019-02-23T20:30:11.283Z,12.10
2019-02-23T20:32:39.963Z,12.10
2019-02-23T20:35:09.284Z,12.00
2019-02-23T20:37:38.012Z,11.90
2019-02-23T20:40:09.588Z,11.80
2019-02-23T20:42:38.274Z,11.80
2019-02-23T20:45:08.756Z,11.90
2019-02-23T20:47:37.544Z,11.50
2019-02-23T20:50:08.998Z,11.40
2019-02-23T20:52:37.694Z,11.70
2019-02-23T20:55:08.474Z,11.30
2019-02-23T20:57:37.224Z,11.60
2019-02-23T21:00:08.564Z,11.10
2019-02-23T21:02:37.240Z,11.50
2019-02-23T21:05:09.162Z,11.40
2019-02-23T21:07:37.939Z,11.40
2019-02-23T21:10:11.409Z,11.20
2019-02-23T21:12:40.085Z,11.40
2019-02-23T21:15:11.041Z,11.20
2019-02-23T21:17:39.717Z,11.30
2019-02-23T21:20:09.936Z,11.50
2019-02-23T21:22:38.607Z,11.30
2019-02-23T21:25:08.792Z,11.30
2019-02-23T21:27:37.468Z,11.20
2019-02-23T21:30:09.214Z,11.50
2019-02-23T21:32:37.884Z,11.20
2019-02-23T21:35:07.961Z,11.20
2019-02-23T21:37:38.103Z,11.00
2019-02-23T21:40:09.219Z,10.90
2019-02-23T21:42:37.908Z,11.10
2019-02-23T21:45:08.612Z,10.80
2019-02-23T21:47:37.335Z,10.90
2019-02-23T21:50:08.262Z,11.00
2019-02-23T21:52:37.218Z,10.80
2019-02-23T21:55:06.743Z,11.10
2019-02-23T21:57:35.445Z,10.90
2019-02-23T22:00:05.891Z,10.90
2019-02-23T22:02:34.632Z,10.90
2019-02-23T22:05:11.950Z,11.20
2019-02-23T22:07:34.662Z,10.90
2019-02-23T22:10:04.895Z,11.10
2019-02-23T22:12:33.569Z,11.10
2019-02-23T22:15:02.840Z,11.20
2019-02-23T22:17:31.840Z,11.10
2019-02-23T22:20:00.845Z,10.90
2019-02-23T22:22:29.549Z,11.00
2019-02-23T22:24:58.277Z,11.00
2019-02-23T22:27:31.366Z,10.90
2019-02-23T22:29:57.390Z,11.10
2019-02-23T22:32:26.100Z,11.00
2019-02-23T22:34:54.810Z,11.10
2019-02-23T22:37:23.683Z,11.00
2019-02-23T22:39:52.341Z,11.00
2019-02-23T22:42:22.607Z,11.00
2019-02-23T22:44:51.271Z,10.60
2019-02-23T22:47:19.984Z,10.60
2019-02-23T22:49:48.660Z,10.60
2019-02-23T22:52:17.367Z,10.70
2019-02-23T22:54:46.125Z,10.80
2019-02-23T22:57:14.936Z,10.80
2019-02-23T22:59:43.624Z,10.50
2019-02-23T23:02:12.431Z,10.70
2019-02-23T23:04:41.110Z,10.40
2019-02-23T23:07:09.811Z,10.60
2019-02-23T23:09:38.499Z,10.20
2019-02-23T23:12:07.389Z,10.40
2019-02-23T23:14:36.107Z,10.20
2019-02-23T23:17:04.764Z,10.40
2019-02-23T23:19:33.475Z,10.40
2019-02-23T23:22:02.153Z,10.40
2019-02-23T23:24:30.856Z,10.20
2019-02-23T23:26:59.527Z,10.40
2019-02-23T23:29:28.213Z,10.30
2019-02-23T23:31:56.904Z,10.50
2019-02-23T23:34:25.617Z,10.40
2019-02-23T23:36:54.436Z,10.50
2019-02-23T23:39:23.138Z,10.30
2019-02-23T23:41:51.838Z,10.30
2019-02-23T23:44:20.527Z,10.30
2019-02-23T23:46:49.230Z,10.40
2019-02-23T23:49:17.898Z,10.40
2019-02-23T23:51:46.844Z,10.60
2019-02-23T23:54:15.555Z,10.30
2019-02-23T23:56:44.225Z,10.50
2019-02-23T23:59:12.933Z,10.20
